Time;durP1;ratioP1;P1;durP2;ratioP2;P2;SDS_P1;SDS_P2;PMS_P1;PMS_P2;Temp;Humidity;BMP_temperature;BMP_pressure;BME280_temperature;BME280_humidity;BME280_pressure;Samples;Min_cycle;Max_cycle;Signal;HPM_P1;HPM_P2
2021/11/21 00:01:30;;;;;;;4.75;4.35;;;;;;;11.31;82.38;98563.91;1749130;81;20946;-64
2021/11/21 00:03:57;;;;;;;4.78;4.37;;;;;;;11.36;82.18;98561.47;1751920;81;21121;-67
2021/11/21 00:06:24;;;;;;;4.85;4.45;;;;;;;11.43;82.02;98558.32;1705779;83;20946;-64
2021/11/21 00:08:52;;;;;;;5.62;5.10;;;;;;;11.44;82.00;98555.16;1749644;81;21029;-64
2021/11/21 00:11:19;;;;;;;4.85;4.35;;;;;;;11.43;82.09;98550.33;1763246;81;21167;-63
2021/11/21 00:13:50;;;;;;;5.45;4.95;;;;;;;11.45;82.12;98546.13;1762328;81;20990;-65
2021/11/21 00:16:36;;;;;;;6.17;5.65;;;;;;;11.44;82.20;98543.17;1679332;85;21084;-64
2021/11/21 00:19:03;;;;;;;6.00;5.45;;;;;;;11.44;82.26;98543.17;1748252;81;20935;-65
2021/11/21 00:21:30;;;;;;;5.08;4.67;;;;;;;11.44;82.31;98545.33;1754427;81;20998;-64
2021/11/21 00:23:57;;;;;;;6.65;6.05;;;;;;;11.47;82.38;98538.25;1742641;81;21899;-64
2021/11/21 00:26:23;;;;;;;6.70;5.85;;;;;;;11.52;82.37;98537.68;1755867;81;20990;-64
2021/11/21 00:28:50;;;;;;;7.15;6.45;;;;;;;11.49;82.57;98543.39;1743812;81;20902;-64
2021/11/21 00:31:17;;;;;;;7.40;6.70;;;;;;;11.49;82.85;98548.72;1759044;81;21563;-65
2021/11/21 00:33:44;;;;;;;7.60;6.80;;;;;;;11.53;83.16;98537.97;1747022;81;21060;-65
2021/11/21 00:36:11;;;;;;;8.05;7.20;;;;;;;11.58;83.06;98533.69;1761373;81;21150;-65
2021/11/21 00:38:38;;;;;;;6.87;6.37;;;;;;;11.55;84.95;98538.62;1754122;81;21527;-65
2021/11/21 00:41:05;;;;;;;8.10;7.40;;;;;;;11.61;83.72;98533.80;1756309;81;20944;-64
2021/11/21 00:43:32;;;;;;;8.50;7.78;;;;;;;11.70;82.94;98521.49;1752910;81;21046;-66
2021/11/21 00:45:59;;;;;;;8.50;7.70;;;;;;;11.62;83.19;98525.63;1747379;81;21078;-65
2021/11/21 00:48:25;;;;;;;8.95;8.18;;;;;;;11.65;82.87;98525.74;1752035;81;21877;-64
2021/11/21 00:50:57;;;;;;;9.48;8.58;;;;;;;11.63;82.89;98515.77;1767273;81;20987;-64
2021/11/21 00:53:24;;;;;;;10.72;9.63;;;;;;;11.66;82.59;98510.05;1747626;81;21056;-65
2021/11/21 00:55:54;;;;;;;9.58;8.73;;;;;;;11.66;82.65;98516.20;1753988;81;21569;-65
2021/11/21 00:58:19;;;;;;;9.38;8.53;;;;;;;11.63;82.70;98511.27;1749049;81;22233;-62
2021/11/21 01:00:49;;;;;;;8.85;8.15;;;;;;;11.62;82.86;98508.82;1751903;81;21136;-65
2021/11/21 01:03:20;;;;;;;9.23;8.43;;;;;;;11.66;82.61;98510.05;1745037;81;20947;-66
2021/11/21 01:05:48;;;;;;;9.48;8.58;;;;;;;11.59;82.91;98519.88;1756366;81;21414;-65
2021/11/21 01:08:14;;;;;;;9.00;8.20;;;;;;;11.59;82.97;98510.55;1758367;81;21082;-64
2021/11/21 01:10:43;;;;;;;9.60;8.70;;;;;;;11.59;82.76;98506.05;1754429;81;21458;-65
2021/11/21 01:13:10;;;;;;;9.28;8.48;;;;;;;11.63;82.69;98499.78;1754283;81;21996;-64
2021/11/21 01:15:37;;;;;;;9.65;8.75;;;;;;;11.63;82.67;98510.44;1758585;81;20856;-64
2021/11/21 01:18:06;;;;;;;9.95;9.08;;;;;;;11.60;82.69;98498.88;1752323;81;20975;-65
2021/11/21 01:20:34;;;;;;;12.75;9.65;;;;;;;11.57;82.88;98501.44;1748200;81;21547;-64
2021/11/21 01:23:02;;;;;;;10.58;9.60;;;;;;;11.59;82.67;98504.72;1756138;81;21007;-65
2021/11/21 01:25:30;;;;;;;10.60;9.70;;;;;;;11.60;82.58;98494.89;1752091;81;21323;-65
2021/11/21 01:27:56;;;;;;;9.98;8.98;;;;;;;11.59;82.49;98489.23;1759523;81;20911;-64
2021/11/21 01:30:26;;;;;;;10.00;9.13;;;;;;;11.59;82.55;98485.23;1704364;83;21529;-65
2021/11/21 01:32:54;;;;;;;9.48;8.70;;;;;;;11.50;82.85;98485.92;1756282;81;20921;-64
2021/11/21 01:35:20;;;;;;;9.28;8.48;;;;;;;11.55;82.62;98481.34;1763979;81;21019;-63
2021/11/21 01:37:47;;;;;;;10.32;9.43;;;;;;;11.60;82.35;98478.91;1760737;81;21201;-64
2021/11/21 01:40:16;;;;;;;10.60;9.60;;;;;;;11.64;82.10;98477.47;1754665;81;21449;-65
2021/11/21 01:42:43;;;;;;;10.40;9.45;;;;;;;11.66;81.70;98474.91;1743978;80;20958;-66
2021/11/21 01:45:10;;;;;;;10.15;9.20;;;;;;;11.63;81.62;98472.64;1761207;81;21527;-65
2021/11/21 01:47:42;;;;;;;9.73;8.63;;;;;;;11.60;81.63;98461.05;1757955;81;21528;-65
2021/11/21 01:50:13;;;;;;;9.75;8.93;;;;;;;11.58;81.76;98460.95;1758532;81;21137;-65
2021/11/21 01:52:39;;;;;;;9.85;8.95;;;;;;;11.67;81.34;98459.75;1755532;81;20963;-66
2021/11/21 01:55:06;;;;;;;11.03;10.03;;;;;;;11.70;81.13;98456.72;1754166;81;21656;-64
2021/11/21 01:57:34;;;;;;;11.53;10.43;;;;;;;11.71;81.01;98441.86;1757917;81;20916;-65
2021/11/21 02:00:06;;;;;;;11.50;10.50;;;;;;;11.71;81.03;98445.02;1752762;81;20884;-65
2021/11/21 02:02:40;;;;;;;12.93;11.65;;;;;;;11.78;80.67;98435.22;1757553;81;21343;-66
2021/11/21 02:05:07;;;;;;;12.28;11.15;;;;;;;11.75;80.59;98439.62;1739066;81;20922;-65
2021/11/21 02:07:34;;;;;;;12.05;10.88;;;;;;;11.75;80.50;98436.45;1752456;81;21616;-65
2021/11/21 02:10:01;;;;;;;13.10;11.90;;;;;;;11.80;80.24;98427.84;1750968;81;20935;-66
2021/11/21 02:12:27;;;;;;;11.85;10.75;;;;;;;11.79;80.25;98428.84;1751090;81;20935;-66
2021/11/21 02:14:54;;;;;;;12.07;10.98;;;;;;;11.76;80.37;98425.25;1763771;81;21087;-66
2021/11/21 02:17:32;;;;;;;11.93;10.82;;;;;;;11.74;80.38;98418.80;1751789;81;22385;-64
2021/11/21 02:20:02;;;;;;;12.33;11.22;;;;;;;11.84;79.97;98414.40;1756909;81;20997;-66
2021/11/21 02:22:26;;;;;;;13.45;12.15;;;;;;;11.83;79.80;98418.61;1752147;80;20946;-66
2021/11/21 02:24:53;;;;;;;14.30;12.90;;;;;;;11.88;79.24;98428.15;1703689;83;20983;-65
2021/11/21 02:27:23;;;;;;;13.35;12.05;;;;;;;11.89;79.19;98419.14;1760172;81;21867;-66
2021/11/21 02:29:50;;;;;;;13.48;12.25;;;;;;;11.92;78.86;98419.53;1749454;81;20995;-64
2021/11/21 02:32:16;;;;;;;13.32;12.18;;;;;;;11.90;78.76;98419.43;1763291;81;21042;-66
2021/11/21 02:34:42;;;;;;;12.73;11.57;;;;;;;11.80;79.00;98413.69;1754509;81;20943;-66
2021/11/21 02:37:11;;;;;;;12.05;10.85;;;;;;;11.71;79.20;98412.55;1752876;81;21595;-66
2021/11/21 02:39:38;;;;;;;12.35;11.25;;;;;;;11.70;79.29;98408.77;1746998;81;21169;-65
2021/11/21 02:42:06;;;;;;;12.30;11.22;;;;;;;11.69;79.37;98409.78;1689680;83;20927;-65
2021/11/21 02:44:33;;;;;;;12.20;11.03;;;;;;;11.61;79.62;98402.77;1753183;81;21022;-65
2021/11/21 02:46:59;;;;;;;13.13;11.93;;;;;;;11.61;79.75;98405.44;1745876;81;20962;-66
2021/11/21 02:49:26;;;;;;;12.73;11.48;;;;;;;11.65;79.62;98403.98;1754090;81;21014;-64
2021/11/21 02:51:52;;;;;;;11.35;10.35;;;;;;;11.66;79.58;98400.82;1751241;81;21807;-65
2021/11/21 02:54:19;;;;;;;11.55;10.45;;;;;;;11.68;79.55;98410.28;1765818;81;21493;-66
2021/11/21 02:56:46;;;;;;;12.28;11.28;;;;;;;11.67;79.46;98400.64;1753377;81;21055;-64
2021/11/21 02:59:13;;;;;;;11.85;10.75;;;;;;;11.65;79.54;98408.53;1747908;81;20927;-65
2021/11/21 03:01:40;;;;;;;11.57;10.60;;;;;;;11.69;79.30;98405.78;1755182;81;21015;-65
2021/11/21 03:04:09;;;;;;;12.00;10.85;;;;;;;11.74;78.99;98395.34;1759354;81;21154;-66
2021/11/21 03:06:36;;;;;;;11.05;10.05;;;;;;;11.73;78.83;98396.38;1753483;81;21596;-67
2021/11/21 03:09:03;;;;;;;11.57;10.55;;;;;;;11.76;78.35;98395.44;1747674;81;21005;-65
2021/11/21 03:11:33;;;;;;;10.95;9.95;;;;;;;11.77;78.18;98393.60;1740810;81;20975;-66
2021/11/21 03:14:03;;;;;;;11.80;10.60;;;;;;;11.76;78.00;98384.78;1760239;81;20991;-65
2021/11/21 03:16:30;;;;;;;11.57;10.30;;;;;;;11.73;77.62;98389.18;1757828;81;21140;-66
2021/11/21 03:18:56;;;;;;;12.68;10.38;;;;;;;11.68;77.42;98392.11;1754591;81;21024;-66
2021/11/21 03:21:23;;;;;;;11.00;10.00;;;;;;;11.69;77.18;98391.13;1740769;81;21486;-65
2021/11/21 03:23:50;;;;;;;11.22;10.23;;;;;;;11.67;77.07;98390.48;1758011;81;20952;-66
2021/11/21 03:26:16;;;;;;;10.90;9.90;;;;;;;11.67;77.23;98390.48;1756218;81;21070;-65
2021/11/21 03:28:43;;;;;;;10.10;9.20;;;;;;;11.68;76.93;98392.11;1754283;81;21071;-66
2021/11/21 03:31:29;;;;;;;10.10;9.20;;;;;;;11.68;76.73;98392.11;1750639;81;21486;-65
2021/11/21 03:33:56;;;;;;;10.25;9.25;;;;;;;11.72;76.27;98393.39;1750277;81;20980;-65
2021/11/21 03:36:22;;;;;;;9.78;8.75;;;;;;;11.68;76.26;98388.97;1748284;81;21066;-66
2021/11/21 03:38:49;;;;;;;10.43;9.45;;;;;;;11.74;75.85;98387.34;1759075;81;21058;-66
2021/11/21 03:41:37;;;;;;;13.35;11.12;;;;;;;11.77;75.60;98392.27;1756675;81;21667;-65
2021/11/21 03:44:05;;;;;;;9.90;9.00;;;;;;;11.75;75.35;98386.33;1750642;81;20943;-66
2021/11/21 03:46:35;;;;;;;10.93;9.70;;;;;;;11.77;75.33;98389.60;1753989;80;20966;-66
2021/11/21 03:49:02;;;;;;;11.20;10.20;;;;;;;11.73;75.50;98391.84;1770749;80;20994;-66
2021/11/21 03:51:32;;;;;;;9.83;9.03;;;;;;;11.70;75.52;98387.45;1747106;80;21034;-65
2021/11/21 03:53:59;;;;;;;10.28;9.33;;;;;;;11.66;75.70;98383.50;1758375;80;21153;-65
2021/11/21 03:56:25;;;;;;;10.10;9.03;;;;;;;11.68;75.79;98392.11;1756309;80;21521;-65
2021/11/21 03:58:52;;;;;;;10.65;9.55;;;;;;;11.70;75.58;98373.62;1753126;80;20982;-66
2021/11/21 04:01:18;;;;;;;10.93;9.93;;;;;;;11.75;75.50;98381.83;1759877;80;20995;-65
2021/11/21 04:03:46;;;;;;;11.15;10.13;;;;;;;11.75;75.44;98380.49;1761815;80;20966;-65
2021/11/21 04:06:12;;;;;;;10.70;9.70;;;;;;;11.72;75.38;98382.73;1766834;80;21150;-66
2021/11/21 04:08:40;;;;;;;10.80;9.68;;;;;;;11.72;75.46;98382.73;1762430;80;20962;-64
2021/11/21 04:11:06;;;;;;;11.93;10.65;;;;;;;11.70;75.47;98379.46;1764483;80;21447;-65
2021/11/21 04:13:33;;;;;;;11.45;10.32;;;;;;;11.69;75.44;98377.81;1762731;80;20976;-66
2021/11/21 04:15:59;;;;;;;12.10;10.90;;;;;;;11.70;75.46;98382.12;1758559;80;20998;-65
2021/11/21 04:18:27;;;;;;;10.93;9.93;;;;;;;11.70;75.39;98375.47;1763147;80;21155;-66
2021/11/21 04:20:55;;;;;;;10.72;9.73;;;;;;;11.75;75.24;98377.00;1752618;80;21002;-64
2021/11/21 04:23:22;;;;;;;11.03;9.98;;;;;;;11.64;75.56;98372.24;1751496;80;20939;-64
2021/11/21 04:25:48;;;;;;;11.60;10.53;;;;;;;11.62;75.47;98371.63;1764273;80;21013;-64
2021/11/21 04:28:15;;;;;;;10.88;9.88;;;;;;;11.59;75.53;98373.36;1756761;80;21030;-64
2021/11/21 04:30:41;;;;;;;11.75;10.60;;;;;;;11.57;75.43;98374.09;1758019;80;21177;-65
2021/11/21 04:33:08;;;;;;;11.85;10.85;;;;;;;11.53;75.53;98364.84;1764181;80;21078;-64
2021/11/21 04:35:35;;;;;;;12.55;11.35;;;;;;;11.52;75.46;98369.34;1765014;80;21038;-65
2021/11/21 04:38:07;;;;;;;11.70;10.48;;;;;;;11.54;75.37;98359.84;1764623;80;21473;-64
2021/11/21 04:40:33;;;;;;;10.70;9.70;;;;;;;11.59;75.07;98362.20;1758271;80;21501;-64
2021/11/21 04:43:01;;;;;;;10.65;9.60;;;;;;;11.57;75.04;98360.27;1767842;80;21169;-66
2021/11/21 04:45:28;;;;;;;11.50;10.50;;;;;;;11.53;75.12;98363.00;1760265;80;21045;-64
2021/11/21 04:47:55;;;;;;;11.10;10.10;;;;;;;11.53;74.97;98363.52;1750148;80;21525;-64
2021/11/21 04:50:21;;;;;;;10.75;9.75;;;;;;;11.48;75.15;98361.97;1751560;80;20947;-65
2021/11/21 04:52:48;;;;;;;11.50;10.25;;;;;;;11.45;75.18;98354.38;1760240;80;20927;-65
2021/11/21 04:55:14;;;;;;;11.38;10.38;;;;;;;11.40;75.30;98351.51;1764185;80;21516;-65
2021/11/21 04:57:42;;;;;;;11.30;10.20;;;;;;;11.45;75.11;98359.70;1748947;80;21492;-65
2021/11/21 05:00:16;;;;;;;10.05;9.18;;;;;;;11.42;75.22;98354.81;1765456;80;21315;-64
2021/11/21 05:02:49;;;;;;;12.07;10.88;;;;;;;11.44;75.25;98351.43;1766401;80;20931;-66
2021/11/21 05:05:17;;;;;;;10.32;9.43;;;;;;;11.44;75.13;98354.09;1765585;80;20948;-65
2021/11/21 05:07:44;;;;;;;11.15;10.05;;;;;;;11.40;75.45;98350.17;1752747;80;21130;-65
2021/11/21 05:10:11;;;;;;;12.07;10.65;;;;;;;11.41;75.36;98343.84;1765274;80;20943;-64
2021/11/21 05:12:39;;;;;;;12.35;11.10;;;;;;;11.43;75.19;98349.78;1764446;80;21034;-65
2021/11/21 05:15:08;;;;;;;11.65;10.55;;;;;;;11.41;75.06;98346.50;1749887;80;20927;-65
2021/11/21 05:17:35;;;;;;;11.53;10.43;;;;;;;11.36;75.10;98335.13;1762216;80;20978;-65
2021/11/21 05:20:02;;;;;;;12.07;10.98;;;;;;;11.30;75.16;98334.60;1761412;80;21204;-64
2021/11/21 05:22:29;;;;;;;12.58;11.38;;;;;;;11.25;75.19;98334.39;1749290;80;20962;-64
2021/11/21 05:24:56;;;;;;;12.28;11.18;;;;;;;11.23;75.24;98331.12;1719511;82;21112;-63
2021/11/21 05:27:23;;;;;;;12.93;11.63;;;;;;;11.18;75.42;98332.73;1714646;82;20915;-64
2021/11/21 05:29:53;;;;;;;12.33;11.20;;;;;;;11.26;75.09;98324.56;1718318;82;20944;-64
2021/11/21 05:32:21;;;;;;;11.83;10.72;;;;;;;11.29;75.06;98330.83;1726308;82;21153;-65
2021/11/21 05:34:48;;;;;;;11.97;10.88;;;;;;;11.32;74.90;98328.56;1723174;82;20903;-69
2021/11/21 05:37:14;;;;;;;12.50;11.30;;;;;;;11.35;74.76;98330.82;1724961;82;21099;-65
2021/11/21 05:39:41;;;;;;;12.28;11.08;;;;;;;11.32;74.80;98323.73;1756594;80;21028;-68
2021/11/21 05:42:07;;;;;;;12.75;11.55;;;;;;;11.30;74.89;98323.13;1749428;80;20966;-66
2021/11/21 05:44:34;;;;;;;12.47;11.33;;;;;;;11.37;74.73;98324.77;1711694;82;21228;-69
2021/11/21 05:47:03;;;;;;;13.22;11.93;;;;;;;11.39;74.57;98322.75;1736329;80;20935;-66
2021/11/21 05:49:32;;;;;;;12.35;11.10;;;;;;;11.33;74.73;98322.22;1703055;82;20991;-66
2021/11/21 05:51:59;;;;;;;11.80;10.60;;;;;;;11.31;74.73;98328.27;1726769;82;21009;-66
2021/11/21 05:54:26;;;;;;;11.78;10.68;;;;;;;11.34;74.83;98326.51;1717531;82;21125;-65
2021/11/21 05:56:52;;;;;;;12.58;11.38;;;;;;;11.38;74.76;98331.75;1720517;82;21890;-66
2021/11/21 05:59:19;;;;;;;14.10;12.65;;;;;;;11.40;74.75;98330.20;1719576;82;20978;-67
2021/11/21 06:01:46;;;;;;;13.65;11.38;;;;;;;11.44;74.63;98326.13;1729529;82;20864;-67
2021/11/21 06:04:12;;;;;;;12.07;10.88;;;;;;;11.52;74.36;98327.27;1705964;82;21783;-66
2021/11/21 06:06:39;;;;;;;11.95;10.85;;;;;;;11.53;74.32;98332.87;1716222;82;21557;-67
2021/11/21 06:09:06;;;;;;;12.63;11.33;;;;;;;11.57;74.12;98336.29;1721860;82;21150;-67
2021/11/21 06:11:32;;;;;;;11.22;10.23;;;;;;;11.55;74.06;98334.86;1732287;82;21002;-68
2021/11/21 06:13:59;;;;;;;12.23;11.12;;;;;;;11.55;73.98;98342.84;1718054;82;20955;-68
2021/11/21 06:16:25;;;;;;;11.90;10.80;;;;;;;11.56;73.95;98335.14;1726147;82;21589;-66
2021/11/21 06:18:52;;;;;;;12.85;11.57;;;;;;;11.59;73.82;98335.56;1723480;82;20994;-67
2021/11/21 06:21:18;;;;;;;11.48;10.38;;;;;;;11.56;73.81;98329.31;1723209;82;23343;-67
2021/11/21 06:23:45;;;;;;;12.60;10.63;;;;;;;11.55;73.80;98341.52;1727059;82;21045;-67
2021/11/21 06:26:12;;;;;;;11.60;10.58;;;;;;;11.56;73.74;98338.63;1719307;82;20983;-66
2021/11/21 06:28:39;;;;;;;11.45;10.35;;;;;;;11.55;73.65;98335.65;1716756;82;20960;-68
2021/11/21 06:31:06;;;;;;;11.85;10.65;;;;;;;11.56;73.58;98333.81;1724181;82;20964;-66
2021/11/21 06:33:33;;;;;;;11.15;10.05;;;;;;;11.58;73.59;98331.75;1714779;82;22075;-67
2021/11/21 06:36:02;;;;;;;11.80;10.60;;;;;;;11.64;73.38;98338.94;1714296;82;20954;-66
2021/11/21 06:38:31;;;;;;;11.80;10.60;;;;;;;11.64;73.03;98333.61;1729458;82;20959;-68
2021/11/21 06:40:58;;;;;;;11.18;10.18;;;;;;;11.61;73.04;98340.17;1722305;82;20952;-71
2021/11/21 06:43:25;;;;;;;11.75;10.40;;;;;;;11.59;73.06;98338.23;1710621;82;21050;-69
2021/11/21 06:45:51;;;;;;;12.60;11.30;;;;;;;11.61;72.88;98338.02;1726228;80;21185;-71
2021/11/21 06:48:21;;;;;;;10.85;9.85;;;;;;;11.60;72.85;98337.73;1751469;80;21006;-70
2021/11/21 06:50:51;;;;;;;11.78;10.58;;;;;;;11.63;72.76;98342.11;1749020;80;21007;-69
2021/11/21 06:53:20;;;;;;;11.40;10.38;;;;;;;11.61;72.72;98342.01;1763033;80;20892;-69
2021/11/21 06:55:46;;;;;;;12.35;11.18;;;;;;;11.61;72.52;98340.17;1756299;80;21528;-68
2021/11/21 06:58:13;;;;;;;14.70;10.20;;;;;;;11.67;72.18;98338.54;1752903;80;21141;-67
2021/11/21 07:00:42;;;;;;;11.40;10.30;;;;;;;11.63;72.19;98338.12;1757260;80;20938;-68
2021/11/21 07:03:09;;;;;;;12.40;9.78;;;;;;;11.64;72.10;98341.61;1759969;80;20950;-68
2021/11/21 07:05:36;;;;;;;10.70;9.70;;;;;;;11.58;72.32;98331.75;1757126;80;21958;-68
2021/11/21 07:08:02;;;;;;;10.93;9.83;;;;;;;11.59;72.28;98332.08;1759792;80;20978;-67
2021/11/21 07:10:30;;;;;;;9.95;8.95;;;;;;;11.59;71.98;98336.08;1756850;80;21520;-67
2021/11/21 07:13:04;;;;;;;10.20;9.10;;;;;;;11.54;71.88;98335.36;1769114;80;20895;-70
2021/11/21 07:15:34;;;;;;;11.25;9.18;;;;;;;11.46;72.16;98331.56;1759914;80;21425;-72
2021/11/21 07:18:01;;;;;;;10.43;9.35;;;;;;;11.53;72.03;98331.55;1756255;80;20950;-71
2021/11/21 07:20:27;;;;;;;13.22;10.93;;;;;;;11.52;71.86;98329.93;1752473;80;22456;-68
2021/11/21 07:22:54;;;;;;;11.15;10.10;;;;;;;11.49;71.85;98325.83;1767987;80;21092;-69
2021/11/21 07:25:24;;;;;;;10.30;9.35;;;;;;;11.53;71.78;98327.55;1763214;80;21018;-68
2021/11/21 07:27:51;;;;;;;10.48;9.38;;;;;;;11.54;71.66;98322.05;1751024;80;21006;-66
2021/11/21 07:30:20;;;;;;;10.65;9.55;;;;;;;11.61;71.29;98331.35;1759774;80;21548;-68
2021/11/21 07:32:47;;;;;;;11.15;10.05;;;;;;;11.57;71.23;98332.80;1757287;79;20984;-67
2021/11/21 07:35:17;;;;;;;11.38;10.18;;;;;;;11.59;71.23;98326.25;1770728;80;21804;-70
2021/11/21 07:37:44;;;;;;;11.43;10.32;;;;;;;11.65;71.06;98331.27;1762794;80;20867;-67
2021/11/21 07:40:29;;;;;;;10.18;9.15;;;;;;;11.60;71.13;98333.19;1768670;80;20993;-67
2021/11/21 07:42:56;;;;;;;11.05;9.98;;;;;;;11.60;70.96;98325.73;1761766;80;20923;-69
2021/11/21 07:45:23;;;;;;;10.50;9.50;;;;;;;11.51;71.11;98321.63;1763181;80;20982;-66
2021/11/21 07:47:49;;;;;;;11.15;10.15;;;;;;;11.47;71.37;98324.40;1764992;80;21449;-63
2021/11/21 07:50:15;;;;;;;9.80;8.90;;;;;;;11.47;71.29;98317.73;1764255;80;20900;-65
2021/11/21 07:52:43;;;;;;;10.70;9.35;;;;;;;11.53;71.31;98324.89;1764068;80;20986;-68
2021/11/21 07:55:10;;;;;;;11.43;9.48;;;;;;;11.57;71.04;98330.14;1763232;80;21524;-68
2021/11/21 07:57:36;;;;;;;11.35;10.28;;;;;;;11.59;70.96;98324.09;1755607;80;20848;-67
2021/11/21 08:00:07;;;;;;;11.48;10.15;;;;;;;11.61;70.80;98334.02;1759555;80;21166;-69
2021/11/21 08:02:33;;;;;;;12.15;9.35;;;;;;;11.70;70.39;98330.17;1763053;80;20994;-69
2021/11/21 08:05:17;;;;;;;10.15;9.15;;;;;;;11.66;70.42;98332.89;1759173;80;21438;-68
2021/11/21 08:07:44;;;;;;;10.60;9.53;;;;;;;11.65;70.19;98325.94;1759802;80;21408;-68
2021/11/21 08:10:11;;;;;;;11.05;9.95;;;;;;;11.59;70.46;98330.74;1756845;80;20971;-71
2021/11/21 08:12:38;;;;;;;11.33;10.23;;;;;;;11.64;70.33;98326.45;1763534;80;21995;-69
2021/11/21 08:15:05;;;;;;;10.80;9.70;;;;;;;11.63;70.29;98332.79;1759471;80;21430;-67
2021/11/21 08:17:32;;;;;;;10.40;9.43;;;;;;;11.61;70.47;98335.34;1755320;80;20946;-67
2021/11/21 08:19:59;;;;;;;11.73;10.53;;;;;;;11.59;70.43;98340.89;1755900;80;20879;-68
2021/11/21 08:22:25;;;;;;;12.18;8.98;;;;;;;11.56;70.52;98341.30;1753612;80;21426;-69
2021/11/21 08:24:52;;;;;;;10.45;9.45;;;;;;;11.58;70.33;98333.91;1753725;80;21131;-72
2021/11/21 08:27:19;;;;;;;11.00;9.90;;;;;;;11.52;70.47;98332.59;1757289;80;20927;-72
2021/11/21 08:29:46;;;;;;;10.30;9.35;;;;;;;11.59;70.38;98334.73;1760232;80;20919;-72
2021/11/21 08:32:13;;;;;;;10.00;9.00;;;;;;;11.62;70.31;98332.50;1761003;80;21472;-73
2021/11/21 08:34:41;;;;;;;10.78;9.78;;;;;;;11.64;70.25;98333.11;1758871;80;21057;-76
2021/11/21 08:37:08;;;;;;;10.80;9.78;;;;;;;11.66;70.12;98331.05;1764540;80;21454;-71
2021/11/21 08:39:34;;;;;;;11.10;10.00;;;;;;;11.61;70.15;98329.52;1762077;80;21504;-71
2021/11/21 08:42:01;;;;;;;11.75;10.55;;;;;;;11.57;70.22;98332.80;1752004;80;20990;-72
2021/11/21 08:44:27;;;;;;;10.72;9.65;;;;;;;11.60;70.25;98328.41;1762406;80;20892;-72
2021/11/21 08:46:53;;;;;;;10.80;9.80;;;;;;;11.62;70.27;98331.67;1767022;80;22333;-72
2021/11/21 08:49:20;;;;;;;12.93;10.18;;;;;;;11.66;70.29;98330.23;1754131;80;21484;-73
2021/11/21 08:51:48;;;;;;;11.55;10.45;;;;;;;11.68;70.21;98322.37;1750683;80;20960;-72
2021/11/21 08:54:16;;;;;;;11.10;9.75;;;;;;;11.78;69.85;98327.81;1754447;80;20950;-72
2021/11/21 08:56:46;;;;;;;12.33;11.12;;;;;;;11.76;69.75;98327.50;1755948;80;21062;-73
2021/11/21 08:59:12;;;;;;;12.35;11.05;;;;;;;11.82;69.46;98325.03;1756850;80;20951;-72
2021/11/21 09:01:39;;;;;;;11.93;10.72;;;;;;;11.80;69.48;98323.92;1753370;80;21033;-72
2021/11/21 09:04:06;;;;;;;11.57;10.48;;;;;;;11.86;69.32;98320.95;1756779;80;22474;-70
2021/11/21 09:06:32;;;;;;;12.68;10.82;;;;;;;11.89;69.23;98324.00;1757787;80;20982;-73
2021/11/21 09:09:00;;;;;;;10.08;9.03;;;;;;;11.91;69.27;98319.81;1767086;80;20915;-76
2021/11/21 09:11:26;;;;;;;10.82;9.73;;;;;;;11.95;69.11;98312.52;1755856;80;21433;-73
2021/11/21 09:13:53;;;;;;;12.10;10.85;;;;;;;12.08;68.54;98312.50;1752650;80;21130;-71
2021/11/21 09:16:19;;;;;;;11.73;10.53;;;;;;;12.18;68.16;98311.56;1759881;80;21560;-70
2021/11/21 09:18:46;;;;;;;22.00;15.93;;;;;;;12.22;68.00;98307.97;1760547;80;20960;-71
2021/11/21 09:21:13;;;;;;;17.25;13.10;;;;;;;12.23;67.73;98309.59;1761807;80;21011;-71
2021/11/21 09:23:40;;;;;;;14.07;12.28;;;;;;;12.26;67.78;98302.52;1759005;80;21038;-73
2021/11/21 09:26:07;;;;;;;11.33;10.20;;;;;;;12.22;67.96;98295.47;1755948;80;21110;-71
2021/11/21 09:28:34;;;;;;;11.35;10.15;;;;;;;12.23;67.91;98294.42;1764638;80;21489;-71
2021/11/21 09:31:00;;;;;;;10.28;9.28;;;;;;;12.26;67.77;98292.67;1762152;80;20943;-71
2021/11/21 09:33:29;;;;;;;10.98;9.88;;;;;;;12.34;67.39;98279.11;1763156;80;20971;-71
2021/11/21 09:35:55;;;;;;;11.28;10.28;;;;;;;12.26;67.38;98275.34;1766440;80;20848;-71
2021/11/21 09:38:24;;;;;;;10.95;9.95;;;;;;;12.21;67.54;98282.33;1766650;80;21500;-71
2021/11/21 09:40:51;;;;;;;11.03;10.03;;;;;;;12.27;67.31;98279.66;1764944;80;21022;-70
2021/11/21 09:43:17;;;;;;;10.63;9.63;;;;;;;12.28;67.22;98271.12;1768614;80;20974;-70
2021/11/21 09:45:44;;;;;;;9.93;9.08;;;;;;;12.28;67.16;98274.61;1771082;80;21493;-71
2021/11/21 09:48:11;;;;;;;9.73;8.85;;;;;;;12.32;66.85;98270.52;1762042;80;21477;-70
2021/11/21 09:50:40;;;;;;;9.28;8.48;;;;;;;12.34;66.61;98265.78;1757696;81;21147;-71
2021/11/21 09:53:09;;;;;;;9.35;8.45;;;;;;;12.34;66.59;98264.95;1764494;81;21402;-72
2021/11/21 09:55:37;;;;;;;10.38;9.28;;;;;;;12.33;66.41;98262.80;1757165;80;20987;-73
2021/11/21 09:58:04;;;;;;;9.75;8.85;;;;;;;12.31;66.38;98254.70;1698489;84;20975;-72
2021/11/21 10:00:32;;;;;;;9.65;8.75;;;;;;;12.27;66.45;98258.84;1756837;80;20927;-74
2021/11/21 10:03:07;;;;;;;8.90;8.15;;;;;;;12.19;66.47;98253.73;1755724;81;21170;-79
2021/11/21 10:05:37;;;;;;;10.23;9.28;;;;;;;12.15;66.57;98254.66;1756968;81;21489;-75
2021/11/21 10:08:18;;;;;;;10.55;9.55;;;;;;;12.11;66.74;98246.78;1747875;81;21455;-69
2021/11/21 10:10:52;;;;;;;10.68;9.68;;;;;;;12.03;67.00;98258.17;1764248;81;21039;-71
2021/11/21 10:13:34;;;;;;;10.95;9.85;;;;;;;12.02;67.13;98257.89;1763756;81;20884;-72
2021/11/21 10:16:21;;;;;;;11.53;10.32;;;;;;;12.04;66.99;98244.66;1758633;81;21124;-74
2021/11/21 10:18:56;;;;;;;10.40;9.45;;;;;;;11.98;67.09;98245.48;1748365;81;27951;-68
2021/11/21 10:21:27;;;;;;;10.90;9.90;;;;;;;11.90;67.38;98250.20;1758391;81;21015;-69
2021/11/21 10:24:28;;;;;;;14.47;10.13;;;;;;;11.85;67.62;98254.84;1757280;80;21066;-77
2021/11/21 10:27:11;;;;;;;9.98;9.08;;;;;;;11.87;67.49;98254.11;1750055;81;21422;-73
2021/11/21 10:29:46;;;;;;;11.35;10.30;;;;;;;11.93;67.37;98245.80;1750636;81;22141;-72
2021/11/21 10:32:26;;;;;;;12.75;10.65;;;;;;;11.87;67.67;98248.78;1757879;81;20943;-76
2021/11/21 10:34:58;;;;;;;10.82;9.73;;;;;;;11.91;68.52;98251.34;1737325;81;21609;-76
2021/11/21 10:37:35;;;;;;;10.18;9.28;;;;;;;12.02;67.74;98248.56;1752151;81;20950;-82
2021/11/21 10:40:08;;;;;;;10.55;9.38;;;;;;;12.00;67.44;98237.27;1761258;80;21983;-70
2021/11/21 10:42:36;;;;;;;11.08;9.80;;;;;;;12.00;67.63;98235.94;1760043;80;21135;-67
2021/11/21 10:45:05;;;;;;;10.38;9.38;;;;;;;12.04;67.25;98226.51;1751347;81;20904;-67
2021/11/21 10:47:52;;;;;;;10.20;9.20;;;;;;;11.98;67.27;98228.16;1761616;80;21132;-74
2021/11/21 10:50:33;;;;;;;;;;;;;;;11.98;67.15;98222.83;1768282;80;20907;-74
2021/11/21 10:53:03;;;;;;;10.13;9.13;;;;;;;12.00;67.11;98220.77;1765580;80;20172;-75
2021/11/21 10:55:30;;;;;;;9.65;8.75;;;;;;;12.06;66.83;98224.44;1759931;80;21143;-72
2021/11/21 10:58:13;;;;;;;10.10;9.05;;;;;;;12.07;66.94;98219.43;1761694;80;21488;-73
2021/11/21 11:00:40;;;;;;;9.30;8.50;;;;;;;12.02;66.91;98218.70;1760795;80;20967;-68
2021/11/21 11:03:19;;;;;;;9.45;8.65;;;;;;;11.91;67.19;98222.03;1758573;80;21058;-70
2021/11/21 11:05:46;;;;;;;9.60;8.70;;;;;;;11.93;67.27;98213.82;1766450;80;21077;-75
2021/11/21 11:08:28;;;;;;;9.60;8.75;;;;;;;11.99;67.09;98214.33;1763075;80;21098;-74
2021/11/21 11:10:56;;;;;;;10.15;9.30;;;;;;;11.99;66.93;98212.99;1740604;80;20986;-73
2021/11/21 11:13:24;;;;;;;9.38;8.08;;;;;;;12.00;66.79;98209.28;1754874;80;21098;-70
2021/11/21 11:15:50;;;;;;;9.53;8.63;;;;;;;11.97;66.79;98207.03;1758461;80;20974;-73
2021/11/21 11:18:20;;;;;;;8.53;7.72;;;;;;;11.94;66.78;98206.14;1721007;80;20975;-75
2021/11/21 11:20:57;;;;;;;8.80;7.95;;;;;;;11.89;66.84;98213.95;1762539;80;21500;-73
2021/11/21 11:23:23;;;;;;;8.55;7.85;;;;;;;11.88;66.87;98202.46;1766559;80;20939;-64
2021/11/21 11:25:50;;;;;;;8.70;7.90;;;;;;;11.95;66.72;98207.25;1765801;80;21607;-68
2021/11/21 11:28:33;;;;;;;8.90;8.10;;;;;;;11.96;66.57;98202.23;1760907;80;21057;-81
2021/11/21 11:31:01;;;;;;;8.93;8.15;;;;;;;11.94;66.56;98202.94;1753656;80;21596;-66